Time;durP1;ratioP1;P1;durP2;ratioP2;P2;SDS_P1;SDS_P2;PMS_P1;PMS_P2;Temp;Humidity;BMP_temperature;BMP_pressure;BME280_temperature;BME280_humidity;BME280_pressure;Samples;Min_cycle;Max_cycle;Signal;HPM_P1;HPM_P2
2021/07/03 00:01:34;;;;;;;;;;;;;;;;;;5111192;28;19914;-87
2021/07/03 00:04:00;;;;;;;;;;;;;;;;;;5114037;27;20735;-87
2021/07/03 00:06:26;;;;;;;;;;;;;;;;;;5131930;27;19912;-87
2021/07/03 00:08:52;;;;;;;;;;;;;;;;;;5117955;27;20031;-87
2021/07/03 00:11:18;;;;;;;;;;;;;;;;;;5114443;27;19965;-86
2021/07/03 00:13:44;;;;;;;;;;;;;;;;;;5124469;27;19908;-87
2021/07/03 00:16:10;;;;;;;;;;;;;;;;;;5113836;28;20373;-87
2021/07/03 00:18:36;;;;;;;;;;;;;;;;;;5111310;28;19926;-87
2021/07/03 00:21:01;;;;;;;;;;;;;;;;;;5103986;28;19970;-87
2021/07/03 00:23:27;;;;;;;;;;;;;;;;;;5112633;28;19979;-86
2021/07/03 00:25:53;;;;;;;;;;;;;;;;;;5092510;28;20600;-86
2021/07/03 00:28:19;;;;;;;;;;;;;;;;;;5111650;28;19907;-87
2021/07/03 00:30:45;;;;;;;;;;;;;;;;;;5111142;28;19908;-86
2021/07/03 00:33:11;;;;;;;;;;;;;;;;;;5109791;28;19989;-86
2021/07/03 00:35:37;;;;;;;;;;;;;;;;;;5110996;28;19939;-87
2021/07/03 00:38:03;;;;;;;;;;;;;;;;;;5112758;28;19915;-88
2021/07/03 00:40:29;;;;;;;;;;;;;;;;;;5110616;28;19986;-85
2021/07/03 00:42:54;;;;;;;;;;;;;;;;;;5092664;28;20341;-86
2021/07/03 00:45:20;;;;;;;;;;;;;;;;;;5113691;28;20357;-86
2021/07/03 00:47:46;;;;;;;;;;;;;;;;;;5110635;28;19912;-88
2021/07/03 00:50:12;;;;;;;;;;;;;;;;;;5110950;28;19919;-88
2021/07/03 00:52:38;;;;;;;;;;;;;;;;;;5110887;28;19908;-87
2021/07/03 00:55:04;;;;;;;;;;;;;;;;;;5113774;28;19924;-87
2021/07/03 00:57:31;;;;;;;;;;;;;;;;;;5114488;28;19907;-87
2021/07/03 00:59:57;;;;;;;;;;;;;;;;;;5113572;28;20446;-87
2021/07/03 01:02:23;;;;;;;;;;;;;;;;;;5095956;28;19948;-88
2021/07/03 01:04:49;;;;;;;;;;;;;;;;;;5117312;27;19973;-85
2021/07/03 01:07:15;;;;;;;;;;;;;;;;;;5115014;28;19911;-87
2021/07/03 01:09:41;;;;;;;;;;;;;;;;;;5113592;28;19915;-88
2021/07/03 01:12:07;;;;;;;;;;;;;;;;;;5114579;28;19904;-87
2021/07/03 01:14:32;;;;;;;;;;;;;;;;;;5110557;27;19912;-87
2021/07/03 01:16:58;;;;;;;;;;;;;;;;;;5114921;28;20273;-87
2021/07/03 01:19:24;;;;;;;;;;;;;;;;;;5113756;28;19961;-86
2021/07/03 01:21:50;;;;;;;;;;;;;;;;;;5113838;28;19946;-86
2021/07/03 01:24:16;;;;;;;;;;;;;;;;;;5112313;28;19966;-88
2021/07/03 01:26:42;;;;;;;;;;;;;;;;;;5114162;28;19927;-87
2021/07/03 01:29:08;;;;;;;;;;;;;;;;;;5114057;28;20105;-86
2021/07/03 01:31:34;;;;;;;;;;;;;;;;;;5113223;28;20028;-86
2021/07/03 01:34:00;;;;;;;;;;;;;;;;;;5115763;27;19907;-87
2021/07/03 01:36:25;;;;;;;;;;;;;;;;;;5120786;27;19915;-87
2021/07/03 01:38:51;;;;;;;;;;;;;;;;;;5113527;28;19998;-86
2021/07/03 01:41:17;;;;;;;;;;;;;;;;;;5113628;28;19907;-87
2021/07/03 01:43:43;;;;;;;;;;;;;;;;;;5112915;28;19919;-86
2021/07/03 01:46:09;;;;;;;;;;;;;;;;;;5113926;27;20255;-86
2021/07/03 01:48:35;;;;;;;;;;;;;;;;;;5115042;27;19911;-87
2021/07/03 01:51:01;;;;;;;;;;;;;;;;;;5113912;28;20366;-87
2021/07/03 01:53:26;;;;;;;;;;;;;;;;;;5113335;27;19921;-87
2021/07/03 01:55:52;;;;;;;;;;;;;;;;;;5095675;28;20281;-89
2021/07/03 01:58:20;;;;;;;;;;;;;;;;;;5116475;27;19908;-87
2021/07/03 02:00:45;;;;;;;;;;;;;;;;;;5114543;28;19907;-86
2021/07/03 02:03:11;;;;;;;;;;;;;;;;;;5113007;28;20364;-86
2021/07/03 02:05:37;;;;;;;;;;;;;;;;;;5113864;28;19911;-86
2021/07/03 02:08:03;;;;;;;;;;;;;;;;;;5113164;28;20399;-87
2021/07/03 02:10:29;;;;;;;;;;;;;;;;;;5113260;28;20351;-88
2021/07/03 02:12:55;;;;;;;;;;;;;;;;;;5112700;28;19908;-87
2021/07/03 02:15:21;;;;;;;;;;;;;;;;;;5095038;28;19911;-87
2021/07/03 02:17:47;;;;;;;;;;;;;;;;;;5113084;28;20018;-87
2021/07/03 02:20:13;;;;;;;;;;;;;;;;;;5113934;28;19927;-87
2021/07/03 02:22:39;;;;;;;;;;;;;;;;;;5112013;28;20312;-87
2021/07/03 02:25:05;;;;;;;;;;;;;;;;;;5112737;28;19915;-88
2021/07/03 02:27:30;;;;;;;;;;;;;;;;;;5113987;27;20447;-87
2021/07/03 02:29:56;;;;;;;;;;;;;;;;;;5113535;28;19907;-88
2021/07/03 02:32:22;;;;;;;;;;;;;;;;;;5112775;28;19907;-88
2021/07/03 02:34:48;;;;;;;;;;;;;;;;;;5112128;28;19911;-86
2021/07/03 02:37:14;;;;;;;;;;;;;;;;;;5112970;28;19908;-87
2021/07/03 02:39:40;;;;;;;;;;;;;;;;;;5094397;28;19910;-86
2021/07/03 02:42:06;;;;;;;;;;;;;;;;;;5110037;28;19998;-86
2021/07/03 02:44:32;;;;;;;;;;;;;;;;;;5111798;28;19965;-86
2021/07/03 02:46:58;;;;;;;;;;;;;;;;;;5112860;28;20325;-85
2021/07/03 02:49:25;;;;;;;;;;;;;;;;;;5112101;28;19929;-86
2021/07/03 02:51:51;;;;;;;;;;;;;;;;;;5094177;28;19946;-87
2021/07/03 02:54:17;;;;;;;;;;;;;;;;;;5111489;27;20479;-85
2021/07/03 02:56:43;;;;;;;;;;;;;;;;;;5092994;28;19926;-86
2021/07/03 02:59:08;;;;;;;;;;;;;;;;;;5094204;28;19937;-85
2021/07/03 03:01:34;;;;;;;;;;;;;;;;;;5111744;28;20337;-85
2021/07/03 03:04:00;;;;;;;;;;;;;;;;;;5112408;28;20382;-87
2021/07/03 03:06:26;;;;;;;;;;;;;;;;;;5111740;28;19911;-88
2021/07/03 03:08:52;;;;;;;;;;;;;;;;;;5093869;28;19908;-86
2021/07/03 03:11:18;;;;;;;;;;;;;;;;;;5109110;28;19907;-86
2021/07/03 03:13:44;;;;;;;;;;;;;;;;;;5106926;28;19923;-87
2021/07/03 03:16:10;;;;;;;;;;;;;;;;;;5111274;28;19916;-86
2021/07/03 03:18:35;;;;;;;;;;;;;;;;;;5112887;28;19911;-85
2021/07/03 03:21:01;;;;;;;;;;;;;;;;;;5112029;28;19950;-84
2021/07/03 03:23:27;;;;;;;;;;;;;;;;;;5111310;27;19908;-85
2021/07/03 03:25:53;;;;;;;;;;;;;;;;;;5111303;28;20274;-87
2021/07/03 03:28:19;;;;;;;;;;;;;;;;;;5111191;27;20474;-87
2021/07/03 03:30:45;;;;;;;;;;;;;;;;;;5094135;28;19946;-86
2021/07/03 03:33:11;;;;;;;;;;;;;;;;;;5080567;28;19939;-86
2021/07/03 03:35:37;;;;;;;;;;;;;;;;;;5111753;28;20297;-86
2021/07/03 03:38:03;;;;;;;;;;;;;;;;;;5111164;28;19915;-86
2021/07/03 03:40:28;;;;;;;;;;;;;;;;;;5093358;28;20322;-85
2021/07/03 03:42:54;;;;;;;;;;;;;;;;;;5110907;28;19907;-87
2021/07/03 03:45:20;;;;;;;;;;;;;;;;;;5112035;27;19914;-87
2021/07/03 03:47:46;;;;;;;;;;;;;;;;;;5111952;28;20010;-86
2021/07/03 03:50:12;;;;;;;;;;;;;;;;;;5110702;28;19904;-86
2021/07/03 03:52:38;;;;;;;;;;;;;;;;;;5092836;28;20281;-86
2021/07/03 03:55:04;;;;;;;;;;;;;;;;;;5091625;28;20262;-87
2021/07/03 03:57:31;;;;;;;;;;;;;;;;;;5110736;28;19920;-85
2021/07/03 03:59:58;;;;;;;;;;;;;;;;;;5096182;28;20014;-85
2021/07/03 04:02:24;;;;;;;;;;;;;;;;;;5110589;28;20289;-86
2021/07/03 04:04:50;;;;;;;;;;;;;;;;;;5110764;28;20330;-85
2021/07/03 04:07:16;;;;;;;;;;;;;;;;;;5111728;28;19915;-86
2021/07/03 04:09:42;;;;;;;;;;;;;;;;;;5110309;28;20274;-87
2021/07/03 04:12:08;;;;;;;;;;;;;;;;;;5110929;28;19941;-86
2021/07/03 04:14:34;;;;;;;;;;;;;;;;;;5110819;28;19907;-87
2021/07/03 04:17:00;;;;;;;;;;;;;;;;;;5110848;28;20338;-86
2021/07/03 04:19:25;;;;;;;;;;;;;;;;;;5092611;28;19908;-86
2021/07/03 04:21:51;;;;;;;;;;;;;;;;;;5090362;28;19933;-86
2021/07/03 04:24:17;;;;;;;;;;;;;;;;;;5106152;28;19994;-85
2021/07/03 04:26:43;;;;;;;;;;;;;;;;;;5105961;28;19950;-85
2021/07/03 04:29:09;;;;;;;;;;;;;;;;;;5094610;28;20013;-85
2021/07/03 04:31:35;;;;;;;;;;;;;;;;;;5114146;28;19915;-85
2021/07/03 04:34:01;;;;;;;;;;;;;;;;;;5095603;28;20354;-87
2021/07/03 04:36:27;;;;;;;;;;;;;;;;;;5114815;28;19920;-87
2021/07/03 04:38:52;;;;;;;;;;;;;;;;;;5114940;28;20270;-86
2021/07/03 04:41:18;;;;;;;;;;;;;;;;;;5114956;28;20348;-85
2021/07/03 04:43:44;;;;;;;;;;;;;;;;;;5113439;28;19911;-87
2021/07/03 04:46:10;;;;;;;;;;;;;;;;;;5114171;28;20022;-85
2021/07/03 04:48:36;;;;;;;;;;;;;;;;;;5096303;28;19907;-85
2021/07/03 04:51:02;;;;;;;;;;;;;;;;;;5114998;28;19955;-86
2021/07/03 04:53:28;;;;;;;;;;;;;;;;;;5094535;28;20341;-86
2021/07/03 04:55:54;;;;;;;;;;;;;;;;;;5114297;28;19915;-86
2021/07/03 04:58:19;;;;;;;;;;;;;;;;;;5095664;28;19930;-85
2021/07/03 05:00:45;;;;;;;;;;;;;;;;;;5095691;28;19908;-86
2021/07/03 05:03:11;;;;;;;;;;;;;;;;;;5095132;28;19911;-86
2021/07/03 05:05:37;;;;;;;;;;;;;;;;;;5114121;28;19930;-87
2021/07/03 05:08:03;;;;;;;;;;;;;;;;;;5114009;28;20015;-86
2021/07/03 05:10:29;;;;;;;;;;;;;;;;;;5113914;28;19918;-85
2021/07/03 05:12:55;;;;;;;;;;;;;;;;;;5113522;28;20491;-86
2021/07/03 05:15:21;;;;;;;;;;;;;;;;;;5095150;28;19908;-86
2021/07/03 05:17:47;;;;;;;;;;;;;;;;;;5105523;28;19919;-86
2021/07/03 05:20:13;;;;;;;;;;;;;;;;;;5102099;28;20270;-86
2021/07/03 05:22:39;;;;;;;;;;;;;;;;;;5113600;28;20002;-87
2021/07/03 05:25:05;;;;;;;;;;;;;;;;;;5112249;27;20336;-86
2021/07/03 05:27:31;;;;;;;;;;;;;;;;;;5105726;28;19965;-85
2021/07/03 05:29:57;;;;;;;;;;;;;;;;;;5114121;28;19923;-83
2021/07/03 05:32:23;;;;;;;;;;;;;;;;;;5113755;28;19969;-84
2021/07/03 05:34:49;;;;;;;;;;;;;;;;;;5112480;28;19908;-82
2021/07/03 05:37:15;;;;;;;;;;;;;;;;;;5113607;28;19908;-83
2021/07/03 05:39:41;;;;;;;;;;;;;;;;;;5114383;28;19904;-85
2021/07/03 05:42:06;;;;;;;;;;;;;;;;;;5094542;28;20002;-83
2021/07/03 05:44:32;;;;;;;;;;;;;;;;;;5094805;28;19908;-84
2021/07/03 05:46:58;;;;;;;;;;;;;;;;;;5112382;28;20348;-84
2021/07/03 05:49:24;;;;;;;;;;;;;;;;;;5113804;28;19908;-81
2021/07/03 05:51:50;;;;;;;;;;;;;;;;;;5093942;28;19973;-83
2021/07/03 05:54:16;;;;;;;;;;;;;;;;;;5117082;27;19968;-82
2021/07/03 05:56:42;;;;;;;;;;;;;;;;;;5112403;28;20018;-83
2021/07/03 05:59:08;;;;;;;;;;;;;;;;;;5113915;28;19911;-83
2021/07/03 06:01:34;;;;;;;;;;;;;;;;;;5111440;28;19915;-82
2021/07/03 06:04:00;;;;;;;;;;;;;;;;;;5094048;28;19908;-82
2021/07/03 06:06:25;;;;;;;;;;;;;;;;;;5113203;28;20018;-83
2021/07/03 06:08:51;;;;;;;;;;;;;;;;;;5113303;28;19907;-84
2021/07/03 06:11:17;;;;;;;;;;;;;;;;;;5113331;28;20341;-80
2021/07/03 06:13:43;;;;;;;;;;;;;;;;;;5111311;27;19912;-82
2021/07/03 06:16:09;;;;;;;;;;;;;;;;;;5094705;28;19933;-82
2021/07/03 06:18:35;;;;;;;;;;;;;;;;;;5112172;28;19933;-83
2021/07/03 06:21:01;;;;;;;;;;;;;;;;;;5112799;28;19918;-84
2021/07/03 06:23:27;;;;;;;;;;;;;;;;;;5112842;27;20073;-82
2021/07/03 06:25:52;;;;;;;;;;;;;;;;;;5114640;27;20124;-83
2021/07/03 06:28:18;;;;;;;;;;;;;;;;;;5093458;28;19918;-83
2021/07/03 06:30:44;;;;;;;;;;;;;;;;;;5112623;28;19907;-84
2021/07/03 06:33:10;;;;;;;;;;;;;;;;;;5112082;28;19903;-82
2021/07/03 06:35:36;;;;;;;;;;;;;;;;;;5111326;27;19930;-83
2021/07/03 06:38:03;;;;;;;;;;;;;;;;;;5112537;28;20287;-84
2021/07/03 06:40:29;;;;;;;;;;;;;;;;;;5093437;28;20338;-83
2021/07/03 06:42:55;;;;;;;;;;;;;;;;;;5111689;28;19986;-84
2021/07/03 06:45:21;;;;;;;;;;;;;;;;;;5093741;28;19960;-84
2021/07/03 06:47:47;;;;;;;;;;;;;;;;;;5112241;28;20625;-83
2021/07/03 06:50:13;;;;;;;;;;;;;;;;;;5111723;28;19958;-82
2021/07/03 06:52:39;;;;;;;;;;;;;;;;;;5109005;27;19942;-82
2021/07/03 06:55:05;;;;;;;;;;;;;;;;;;5113672;27;20286;-81
2021/07/03 06:57:30;;;;;;;;;;;;;;;;;;5115668;27;19908;-80
2021/07/03 06:59:56;;;;;;;;;;;;;;;;;;5098140;27;19965;-82
2021/07/03 07:02:22;;;;;;;;;;;;;;;;;;5111370;28;19904;-81
2021/07/03 07:04:48;;;;;;;;;;;;;;;;;;5093769;28;19926;-81
2021/07/03 07:07:14;;;;;;;;;;;;;;;;;;5085730;28;19928;-82
2021/07/03 07:09:40;;;;;;;;;;;;;;;;;;5111711;28;19908;-82
2021/07/03 07:12:07;;;;;;;;;;;;;;;;;;5111264;27;20265;-81
2021/07/03 07:14:33;;;;;;;;;;;;;;;;;;5108034;27;19908;-82
2021/07/03 07:16:58;;;;;;;;;;;;;;;;;;5105668;27;20278;-83
2021/07/03 07:19:24;;;;;;;;;;;;;;;;;;5102942;28;19954;-84
2021/07/03 07:21:50;;;;;;;;;;;;;;;;;;5112876;28;20380;-85
2021/07/03 07:24:16;;;;;;;;;;;;;;;;;;5093460;28;20383;-83
2021/07/03 07:26:42;;;;;;;;;;;;;;;;;;5111516;28;19931;-84
2021/07/03 07:29:08;;;;;;;;;;;;;;;;;;5111082;28;20245;-83
2021/07/03 07:31:34;;;;;;;;;;;;;;;;;;5108919;27;20011;-85
2021/07/03 07:34:00;;;;;;;;;;;;;;;;;;5111615;27;19954;-82
2021/07/03 07:36:26;;;;;;;;;;;;;;;;;;5114216;28;19908;-85
2021/07/03 07:38:51;;;;;;;;;;;;;;;;;;5115204;28;20364;-84
2021/07/03 07:41:18;;;;;;;;;;;;;;;;;;5115154;28;19911;-84
2021/07/03 07:43:44;;;;;;;;;;;;;;;;;;5112171;28;19907;-84
2021/07/03 07:46:10;;;;;;;;;;;;;;;;;;5091884;28;19923;-81
2021/07/03 07:48:36;;;;;;;;;;;;;;;;;;5113865;28;19915;-82
2021/07/03 07:51:02;;;;;;;;;;;;;;;;;;5117341;27;19981;-84
2021/07/03 07:53:28;;;;;;;;;;;;;;;;;;5101072;28;19914;-82
2021/07/03 07:55:54;;;;;;;;;;;;;;;;;;5095323;28;19923;-82
2021/07/03 07:58:19;;;;;;;;;;;;;;;;;;5113965;28;19969;-84
2021/07/03 08:00:45;;;;;;;;;;;;;;;;;;5115172;28;19907;-82
2021/07/03 08:03:12;;;;;;;;;;;;;;;;;;5112393;28;19907;-82
2021/07/03 08:05:38;;;;;;;;;;;;;;;;;;5121375;27;19908;-85
2021/07/03 08:08:06;;;;;;;;;;;;;;;;;;5113659;28;19915;-83
2021/07/03 08:10:32;;;;;;;;;;;;;;;;;;5096227;28;19908;-82
2021/07/03 08:12:58;;;;;;;;;;;;;;;;;;5112418;28;19922;-84
2021/07/03 08:15:24;;;;;;;;;;;;;;;;;;5113178;28;20394;-84
2021/07/03 08:17:50;;;;;;;;;;;;;;;;;;5115058;28;19922;-83
2021/07/03 08:20:16;;;;;;;;;;;;;;;;;;5112763;28;19907;-82
2021/07/03 08:22:42;;;;;;;;;;;;;;;;;;5093151;28;20499;-83
2021/07/03 08:25:11;;;;;;;;;;;;;;;;;;5112223;28;20636;-84
2021/07/03 08:27:37;;;;;;;;;;;;;;;;;;5113815;28;20380;-84
2021/07/03 08:30:03;;;;;;;;;;;;;;;;;;5094371;28;19916;-83
2021/07/03 08:32:30;;;;;;;;;;;;;;;;;;5114176;28;19907;-83
2021/07/03 08:34:56;;;;;;;;;;;;;;;;;;5114153;28;19935;-83
2021/07/03 08:37:22;;;;;;;;;;;;;;;;;;5119415;28;19950;-83
2021/07/03 08:39:48;;;;;;;;;;;;;;;;;;5113522;28;19912;-82
2021/07/03 08:42:14;;;;;;;;;;;;;;;;;;5114155;28;19948;-83
2021/07/03 08:44:40;;;;;;;;;;;;;;;;;;5113975;28;20266;-83
2021/07/03 08:47:06;;;;;;;;;;;;;;;;;;5114170;28;20017;-83
2021/07/03 08:49:32;;;;;;;;;;;;;;;;;;5117163;28;19911;-83
2021/07/03 08:51:58;;;;;;;;;;;;;;;;;;5114401;28;19933;-82
2021/07/03 08:54:23;;;;;;;;;;;;;;;;;;5092564;28;20016;-82
2021/07/03 08:56:49;;;;;;;;;;;;;;;;;;5110628;28;19908;-82
2021/07/03 08:59:15;;;;;;;;;;;;;;;;;;5113507;28;19915;-82
2021/07/03 09:01:41;;;;;;;;;;;;;;;;;;5089938;28;20034;-83
2021/07/03 09:04:07;;;;;;;;;;;;;;;;;;5108621;28;19915;-81
2021/07/03 09:06:33;;;;;;;;;;;;;;;;;;5107276;28;19926;-81
2021/07/03 09:08:59;;;;;;;;;;;;;;;;;;5121813;28;19907;-83
2021/07/03 09:11:25;;;;;;;;;;;;;;;;;;5131758;28;19990;-82
2021/07/03 09:13:51;;;;;;;;;;;;;;;;;;5130547;28;19903;-82
2021/07/03 09:16:16;;;;;;;;;;;;;;;;;;5135144;27;19903;-82
2021/07/03 09:18:42;;;;;;;;;;;;;;;;;;5134834;27;19904;-83
2021/07/03 09:21:08;;;;;;;;;;;;;;;;;;5134652;27;19907;-81
2021/07/03 09:23:34;;;;;;;;;;;;;;;;;;5134811;27;19943;-84
2021/07/03 09:26:00;;;;;;;;;;;;;;;;;;5134349;27;20358;-83
2021/07/03 09:28:26;;;;;;;;;;;;;;;;;;5134882;27;19903;-83
2021/07/03 09:30:52;;;;;;;;;;;;;;;;;;5132912;27;20433;-84
2021/07/03 09:33:18;;;;;;;;;;;;;;;;;;5113337;27;20002;-81
2021/07/03 09:35:44;;;;;;;;;;;;;;;;;;5111029;27;19961;-82
2021/07/03 09:38:09;;;;;;;;;;;;;;;;;;5109412;27;20212;-80
2021/07/03 09:40:35;;;;;;;;;;;;;;;;;;5118687;27;19915;-80
2021/07/03 09:43:01;;;;;;;;;;;;;;;;;;5109445;27;19908;-82
2021/07/03 09:45:27;;;;;;;;;;;;;;;;;;5104575;28;19908;-82
2021/07/03 09:47:53;;;;;;;;;;;;;;;;;;5112643;28;20003;-80
2021/07/03 09:50:19;;;;;;;;;;;;;;;;;;5118058;28;19908;-80
2021/07/03 09:52:45;;;;;;;;;;;;;;;;;;5095108;28;19927;-80
2021/07/03 09:55:11;;;;;;;;;;;;;;;;;;5088391;28;19955;-85
2021/07/03 09:57:37;;;;;;;;;;;;;;;;;;5088358;28;19957;-82
2021/07/03 10:00:03;;;;;;;;;;;;;;;;;;5090366;28;19911;-81
2021/07/03 10:02:28;;;;;;;;;;;;;;;;;;5098118;28;19962;-81
2021/07/03 10:04:54;;;;;;;;;;;;;;;;;;5092258;28;19908;-82
2021/07/03 10:07:20;;;;;;;;;;;;;;;;;;5086535;28;19930;-82
2021/07/03 10:09:46;;;;;;;;;;;;;;;;;;5086759;28;20378;-82
2021/07/03 10:12:12;;;;;;;;;;;;;;;;;;5086567;28;19915;-83
2021/07/03 10:14:38;;;;;;;;;;;;;;;;;;5085555;28;19915;-82
2021/07/03 10:17:04;;;;;;;;;;;;;;;;;;5086842;28;19911;-81
2021/07/03 10:19:30;;;;;;;;;;;;;;;;;;5088171;28;20003;-82
2021/07/03 10:21:56;;;;;;;;;;;;;;;;;;5087394;28;19912;-81
2021/07/03 10:24:22;;;;;;;;;;;;;;;;;;5092915;28;19916;-81
2021/07/03 10:26:52;;;;;;;;;;;;;;;;;;5097603;28;20042;-81
2021/07/03 10:29:21;;;;;;;;;;;;;;;;;;5107322;28;19935;-83
2021/07/03 10:31:47;;;;;;;;;;;;;;;;;;5094908;28;19931;-80
2021/07/03 10:34:12;;;;;;;;;;;;;;;;;;5092756;28;20350;-81
2021/07/03 10:36:38;;;;;;;;;;;;;;;;;;5088771;28;19908;-80
2021/07/03 10:39:05;;;;;;;;;;;;;;;;;;5078912;28;19916;-82
2021/07/03 10:41:31;;;;;;;;;;;;;;;;;;5115152;28;20354;-82
2021/07/03 10:43:57;;;;;;;;;;;;;;;;;;5113651;28;19910;-80
2021/07/03 10:46:23;;;;;;;;;;;;;;;;;;5096987;28;19919;-82
2021/07/03 10:48:49;;;;;;;;;;;;;;;;;;5093193;28;19999;-81
2021/07/03 10:51:15;;;;;;;;;;;;;;;;;;5093593;28;19939;-81
2021/07/03 10:53:41;;;;;;;;;;;;;;;;;;5091952;28;19904;-81
2021/07/03 10:56:08;;;;;;;;;;;;;;;;;;5106498;28;20285;-81
2021/07/03 10:58:34;;;;;;;;;;;;;;;;;;5112886;28;20003;-81
2021/07/03 11:00:59;;;;;;;;;;;;;;;;;;5094498;28;19938;-81
2021/07/03 11:03:25;;;;;;;;;;;;;;;;;;5121443;28;19929;-81
2021/07/03 11:05:51;;;;;;;;;;;;;;;;;;5116964;28;20313;-82
2021/07/03 11:08:20;;;;;;;;;;;;;;;;;;5120419;28;19957;-82
2021/07/03 11:10:46;;;;;;;;;;;;;;;;;;5119971;28;20162;-82
2021/07/03 11:13:12;;;;;;;;;;;;;;;;;;5100340;28;19917;-82
2021/07/03 11:15:39;;;;;;;;;;;;;;;;;;5117513;27;19907;-81
2021/07/03 11:18:05;;;;;;;;;;;;;;;;;;5129094;27;19914;-81
2021/07/03 11:20:31;;;;;;;;;;;;;;;;;;5113973;28;19904;-81
2021/07/03 11:22:57;;;;;;;;;;;;;;;;;;5112911;27;20315;-82
2021/07/03 11:25:23;;;;;;;;;;;;;;;;;;5114867;27;19911;-81
2021/07/03 11:27:49;;;;;;;;;;;;;;;;;;5132452;27;19926;-81
2021/07/03 11:30:15;;;;;;;;;;;;;;;;;;5136252;27;19931;-82
2021/07/03 11:32:43;;;;;;;;;;;;;;;;;;5103971;27;19908;-81
2021/07/03 11:35:09;;;;;;;;;;;;;;;;;;5094908;28;19904;-82
2021/07/03 11:37:35;;;;;;;;;;;;;;;;;;5095849;28;20466;-82
2021/07/03 11:40:02;;;;;;;;;;;;;;;;;;5094085;28;19904;-82
2021/07/03 11:42:34;;;;;;;;;;;;;;;;;;5092392;28;19912;-80
2021/07/03 11:45:00;;;;;;;;;;;;;;;;;;5117131;27;19908;-82
2021/07/03 11:47:26;;;;;;;;;;;;;;;;;;5114632;28;19912;-82
2021/07/03 11:49:52;;;;;;;;;;;;;;;;;;5112662;28;19986;-82
2021/07/03 11:52:17;;;;;;;;;;;;;;;;;;5113605;28;19950;-81
2021/07/03 11:54:43;;;;;;;;;;;;;;;;;;5114929;28;19914;-83
2021/07/03 11:57:09;;;;;;;;;;;;;;;;;;5114563;28;20356;-81
2021/07/03 11:59:35;;;;;;;;;;;;;;;;;;5115417;28;19946;-82
2021/07/03 12:02:04;;;;;;;;;;;;;;;;;;5118985;28;19904;-82
2021/07/03 12:04:31;;;;;;;;;;;;;;;;;;5132739;27;19911;-81
2021/07/03 12:06:59;;;;;;;;;;;;;;;;;;5139804;27;19911;-82
2021/07/03 12:09:27;;;;;;;;;;;;;;;;;;5132060;27;19903;-81
2021/07/03 12:11:53;;;;;;;;;;;;;;;;;;5131172;27;19956;-82
2021/07/03 12:14:19;;;;;;;;;;;;;;;;;;5117803;27;20002;-82
2021/07/03 12:16:45;;;;;;;;;;;;;;;;;;5111650;28;20270;-82
2021/07/03 12:19:16;;;;;;;;;;;;;;;;;;5110985;28;20044;-81
2021/07/03 12:21:42;;;;;;;;;;;;;;;;;;5093461;28;19992;-82
2021/07/03 12:24:11;;;;;;;;;;;;;;;;;;5111076;28;20832;-82
2021/07/03 12:26:37;;;;;;;;;;;;;;;;;;5103729;28;19915;-82
2021/07/03 12:29:03;;;;;;;;;;;;;;;;;;5120056;28;19942;-81
2021/07/03 12:31:28;;;;;;;;;;;;;;;;;;5117834;28;19919;-81
2021/07/03 12:33:54;;;;;;;;;;;;;;;;;;5116459;28;20106;-82
2021/07/03 12:36:20;;;;;;;;;;;;;;;;;;5131790;28;19961;-82
2021/07/03 12:38:46;;;;;;;;;;;;;;;;;;5131675;28;19910;-82
2021/07/03 12:41:12;;;;;;;;;;;;;;;;;;5131274;28;19999;-82
2021/07/03 12:43:38;;;;;;;;;;;;;;;;;;5112278;28;20366;-81
2021/07/03 12:46:04;;;;;;;;;;;;;;;;;;5131340;28;19911;-82
2021/07/03 12:48:30;;;;;;;;;;;;;;;;;;5131381;28;19903;-82
2021/07/03 12:50:56;;;;;;;;;;;;;;;;;;5135141;27;20354;-82
2021/07/03 12:53:22;;;;;;;;;;;;;;;;;;5133491;27;19914;-82
2021/07/03 12:55:48;;;;;;;;;;;;;;;;;;5135342;27;19919;-82
2021/07/03 12:58:13;;;;;;;;;;;;;;;;;;5135763;27;19903;-82
2021/07/03 13:00:39;;;;;;;;;;;;;;;;;;5134053;27;20349;-82
2021/07/03 13:03:05;;;;;;;;;;;;;;;;;;5133778;27;19950;-82
2021/07/03 13:05:31;;;;;;;;;;;;;;;;;;5134204;27;19918;-82
2021/07/03 13:07:57;;;;;;;;;;;;;;;;;;5135658;27;19918;-81
2021/07/03 13:10:23;;;;;;;;;;;;;;;;;;5137418;27;20314;-82
2021/07/03 13:12:49;;;;;;;;;;;;;;;;;;5133344;27;19903;-80
2021/07/03 13:15:15;;;;;;;;;;;;;;;;;;5113813;28;19912;-81
2021/07/03 13:17:40;;;;;;;;;;;;;;;;;;5114556;28;19903;-81
2021/07/03 13:20:06;;;;;;;;;;;;;;;;;;5114748;28;19955;-81
2021/07/03 13:22:32;;;;;;;;;;;;;;;;;;5114074;28;19904;-82
2021/07/03 13:24:58;;;;;;;;;;;;;;;;;;5115201;27;19915;-82
2021/07/03 13:27:24;;;;;;;;;;;;;;;;;;5134573;27;19919;-82
2021/07/03 13:29:50;;;;;;;;;;;;;;;;;;5134580;27;20290;-82
2021/07/03 13:32:16;;;;;;;;;;;;;;;;;;5115969;27;20047;-81
2021/07/03 13:34:43;;;;;;;;;;;;;;;;;;5134583;27;19922;-82
2021/07/03 13:37:09;;;;;;;;;;;;;;;;;;5134253;27;19908;-81
2021/07/03 13:39:35;;;;;;;;;;;;;;;;;;5134793;27;20360;-80
2021/07/03 13:42:01;;;;;;;;;;;;;;;;;;5134034;27;19903;-82
2021/07/03 13:44:27;;;;;;;;;;;;;;;;;;5118760;27;19904;-82
2021/07/03 13:46:52;;;;;;;;;;;;;;;;;;5113326;28;19972;-81
2021/07/03 13:49:18;;;;;;;;;;;;;;;;;;5114737;28;19939;-81
2021/07/03 13:51:44;;;;;;;;;;;;;;;;;;5115612;27;19908;-83
2021/07/03 13:54:10;;;;;;;;;;;;;;;;;;5098723;28;19998;-81
2021/07/03 13:56:36;;;;;;;;;;;;;;;;;;5118740;27;19920;-82
2021/07/03 13:59:02;;;;;;;;;;;;;;;;;;5114365;27;19907;-82
2021/07/03 14:01:28;;;;;;;;;;;;;;;;;;5129290;27;19957;-81
2021/07/03 14:03:54;;;;;;;;;;;;;;;;;;5094185;28;19964;-82
2021/07/03 14:06:20;;;;;;;;;;;;;;;;;;5094761;28;20295;-81
2021/07/03 14:08:46;;;;;;;;;;;;;;;;;;5094318;28;19904;-82
2021/07/03 14:11:12;;;;;;;;;;;;;;;;;;5093436;28;20065;-81
2021/07/03 14:13:38;;;;;;;;;;;;;;;;;;5092970;28;19908;-81
2021/07/03 14:16:03;;;;;;;;;;;;;;;;;;5093572;28;20266;-81
2021/07/03 14:18:30;;;;;;;;;;;;;;;;;;5092637;28;19993;-81
2021/07/03 14:20:56;;;;;;;;;;;;;;;;;;5094619;28;19904;-82
2021/07/03 14:23:22;;;;;;;;;;;;;;;;;;5125048;27;19914;-80
2021/07/03 14:25:47;;;;;;;;;;;;;;;;;;5139244;27;19925;-82
2021/07/03 14:28:13;;;;;;;;;;;;;;;;;;5141667;27;19911;-82
2021/07/03 14:30:39;;;;;;;;;;;;;;;;;;5140889;27;19986;-82
2021/07/03 14:33:05;;;;;;;;;;;;;;;;;;5101050;28;19914;-83
2021/07/03 14:35:31;;;;;;;;;;;;;;;;;;5114614;28;20266;-82
2021/07/03 14:37:57;;;;;;;;;;;;;;;;;;5115464;28;19904;-83
2021/07/03 14:40:23;;;;;;;;;;;;;;;;;;5114630;28;19915;-79
2021/07/03 14:42:49;;;;;;;;;;;;;;;;;;5112020;28;19911;-80
2021/07/03 14:45:15;;;;;;;;;;;;;;;;;;5115087;28;19923;-81
2021/07/03 14:47:41;;;;;;;;;;;;;;;;;;5127162;27;19938;-82
2021/07/03 14:50:07;;;;;;;;;;;;;;;;;;5124306;28;20395;-81
2021/07/03 14:52:33;;;;;;;;;;;;;;;;;;5093568;28;19903;-81
2021/07/03 14:54:59;;;;;;;;;;;;;;;;;;5094260;28;20349;-83
2021/07/03 14:57:25;;;;;;;;;;;;;;;;;;5112426;28;19927;-84
2021/07/03 14:59:52;;;;;;;;;;;;;;;;;;5114556;27;19924;-83
2021/07/03 15:02:21;;;;;;;;;;;;;;;;;;5117890;27;19929;-83
2021/07/03 15:04:47;;;;;;;;;;;;;;;;;;5099665;28;19939;-83
2021/07/03 15:07:14;;;;;;;;;;;;;;;;;;5117356;28;20044;-82
2021/07/03 15:09:40;;;;;;;;;;;;;;;;;;5095300;28;20325;-84
2021/07/03 15:12:06;;;;;;;;;;;;;;;;;;5092226;28;19953;-84
2021/07/03 15:14:32;;;;;;;;;;;;;;;;;;5094968;28;20394;-84
2021/07/03 15:16:58;;;;;;;;;;;;;;;;;;5101183;27;19941;-84
2021/07/03 15:19:24;;;;;;;;;;;;;;;;;;5110746;28;20433;-84
2021/07/03 15:21:50;;;;;;;;;;;;;;;;;;5109892;28;19940;-85
2021/07/03 15:24:17;;;;;;;;;;;;;;;;;;5110992;28;19918;-84
2021/07/03 15:26:43;;;;;;;;;;;;;;;;;;5110037;28;19941;-83
2021/07/03 15:29:09;;;;;;;;;;;;;;;;;;5110657;28;19907;-83
2021/07/03 15:31:35;;;;;;;;;;;;;;;;;;5110602;28;19912;-84
2021/07/03 15:34:01;;;;;;;;;;;;;;;;;;5109485;28;20000;-84
2021/07/03 15:36:27;;;;;;;;;;;;;;;;;;5092713;28;19953;-83
2021/07/03 15:38:52;;;;;;;;;;;;;;;;;;5110757;28;19937;-84
2021/07/03 15:41:18;;;;;;;;;;;;;;;;;;5110802;28;19914;-84
2021/07/03 15:43:44;;;;;;;;;;;;;;;;;;5108895;28;20350;-84
2021/07/03 15:46:10;;;;;;;;;;;;;;;;;;5115433;27;19918;-84
2021/07/03 15:48:36;;;;;;;;;;;;;;;;;;5087091;28;20000;-83
2021/07/03 15:51:02;;;;;;;;;;;;;;;;;;5114937;27;20297;-83
2021/07/03 15:53:28;;;;;;;;;;;;;;;;;;5109301;27;20002;-82
2021/07/03 15:55:54;;;;;;;;;;;;;;;;;;5097593;28;19968;-83
2021/07/03 15:58:19;;;;;;;;;;;;;;;;;;5108483;27;19908;-84
2021/07/03 16:00:45;;;;;;;;;;;;;;;;;;5088388;28;19915;-84
2021/07/03 16:03:11;;;;;;;;;;;;;;;;;;5103584;28;20006;-82
2021/07/03 16:05:37;;;;;;;;;;;;;;;;;;5103022;27;19978;-86
2021/07/03 16:08:03;;;;;;;;;;;;;;;;;;5107727;27;19922;-86
2021/07/03 16:10:29;;;;;;;;;;;;;;;;;;5111114;28;19919;-84
2021/07/03 16:12:55;;;;;;;;;;;;;;;;;;5108729;28;20382;-84
2021/07/03 16:15:21;;;;;;;;;;;;;;;;;;5110998;28;19912;-84
2021/07/03 16:17:49;;;;;;;;;;;;;;;;;;5112510;28;19953;-86
2021/07/03 16:20:15;;;;;;;;;;;;;;;;;;5111101;28;20002;-84
2021/07/03 16:22:41;;;;;;;;;;;;;;;;;;5104528;28;20015;-85
2021/07/03 16:25:07;;;;;;;;;;;;;;;;;;5110735;27;19961;-85
2021/07/03 16:27:33;;;;;;;;;;;;;;;;;;5097091;28;19916;-85
2021/07/03 16:29:58;;;;;;;;;;;;;;;;;;5093620;28;19973;-86
2021/07/03 16:32:26;;;;;;;;;;;;;;;;;;5115020;27;19918;-84
2021/07/03 16:34:52;;;;;;;;;;;;;;;;;;5111215;28;19953;-87
2021/07/03 16:37:17;;;;;;;;;;;;;;;;;;5098166;28;19915;-87